sensor_id;sensor_type;location;lat;lon;timestamp;temperature;humidity
80367;DHT22;70058;42.660;23.366;2023-12-29T00:01:48;6.00;65.40
80367;DHT22;70058;42.660;23.366;2023-12-29T00:04:14;6.10;65.40
80367;DHT22;70058;42.660;23.366;2023-12-29T00:06:40;6.10;64.90
80367;DHT22;70058;42.660;23.366;2023-12-29T00:09:06;6.10;64.60
80367;DHT22;70058;42.660;23.366;2023-12-29T00:11:33;6.00;65.00
80367;DHT22;70058;42.660;23.366;2023-12-29T00:13:59;6.00;65.30
80367;DHT22;70058;42.660;23.366;2023-12-29T00:16:27;6.00;65.10
80367;DHT22;70058;42.660;23.366;2023-12-29T00:18:56;6.00;65.10
80367;DHT22;70058;42.660;23.366;2023-12-29T00:21:21;5.90;65.00
80367;DHT22;70058;42.660;23.366;2023-12-29T00:23:47;5.90;65.60
80367;DHT22;70058;42.660;23.366;2023-12-29T00:26:16;5.80;65.50
80367;DHT22;70058;42.660;23.366;2023-12-29T00:28:43;5.80;65.70
80367;DHT22;70058;42.660;23.366;2023-12-29T00:31:13;5.70;65.90
80367;DHT22;70058;42.660;23.366;2023-12-29T00:33:40;5.90;65.30
80367;DHT22;70058;42.660;23.366;2023-12-29T00:36:06;5.70;66.10
80367;DHT22;70058;42.660;23.366;2023-12-29T00:38:31;5.70;66.10
80367;DHT22;70058;42.660;23.366;2023-12-29T00:40:57;5.80;65.70
80367;DHT22;70058;42.660;23.366;2023-12-29T00:43:23;5.80;65.40
80367;DHT22;70058;42.660;23.366;2023-12-29T00:45:49;5.70;65.50
80367;DHT22;70058;42.660;23.366;2023-12-29T00:48:15;5.70;65.30
80367;DHT22;70058;42.660;23.366;2023-12-29T00:50:41;5.60;66.20
80367;DHT22;70058;42.660;23.366;2023-12-29T00:53:06;5.70;66.20
80367;DHT22;70058;42.660;23.366;2023-12-29T00:55:32;5.70;65.80
80367;DHT22;70058;42.660;23.366;2023-12-29T00:57:58;5.60;66.00
80367;DHT22;70058;42.660;23.366;2023-12-29T01:00:23;5.60;66.50
80367;DHT22;70058;42.660;23.366;2023-12-29T01:02:49;5.70;66.60
80367;DHT22;70058;42.660;23.366;2023-12-29T01:05:16;5.60;65.90
80367;DHT22;70058;42.660;23.366;2023-12-29T01:07:42;5.50;66.40
80367;DHT22;70058;42.660;23.366;2023-12-29T01:10:08;5.50;66.70
80367;DHT22;70058;42.660;23.366;2023-12-29T01:12:34;5.60;66.30
80367;DHT22;70058;42.660;23.366;2023-12-29T01:15:00;5.60;66.20
80367;DHT22;70058;42.660;23.366;2023-12-29T01:17:25;5.60;65.90
80367;DHT22;70058;42.660;23.366;2023-12-29T01:19:53;5.50;65.80
80367;DHT22;70058;42.660;23.366;2023-12-29T01:22:19;5.50;66.30
80367;DHT22;70058;42.660;23.366;2023-12-29T01:24:45;5.50;66.50
80367;DHT22;70058;42.660;23.366;2023-12-29T01:27:10;5.40;66.50
80367;DHT22;70058;42.660;23.366;2023-12-29T01:29:36;5.60;66.00
80367;DHT22;70058;42.660;23.366;2023-12-29T01:32:02;5.50;65.80
80367;DHT22;70058;42.660;23.366;2023-12-29T01:34:29;5.30;66.60
80367;DHT22;70058;42.660;23.366;2023-12-29T01:36:59;5.50;66.00
80367;DHT22;70058;42.660;23.366;2023-12-29T01:39:24;5.40;66.20
80367;DHT22;70058;42.660;23.366;2023-12-29T01:41:50;5.40;66.20
80367;DHT22;70058;42.660;23.366;2023-12-29T01:44:18;5.40;66.30
80367;DHT22;70058;42.660;23.366;2023-12-29T01:46:51;5.40;65.90
80367;DHT22;70058;42.660;23.366;2023-12-29T01:49:19;5.30;66.20
80367;DHT22;70058;42.660;23.366;2023-12-29T01:51:55;5.20;66.10
80367;DHT22;70058;42.660;23.366;2023-12-29T01:54:34;5.30;66.30
80367;DHT22;70058;42.660;23.366;2023-12-29T01:57:00;5.30;66.70
80367;DHT22;70058;42.660;23.366;2023-12-29T01:59:28;5.30;66.10
80367;DHT22;70058;42.660;23.366;2023-12-29T02:01:55;5.30;66.20
80367;DHT22;70058;42.660;23.366;2023-12-29T02:04:24;5.20;65.90
80367;DHT22;70058;42.660;23.366;2023-12-29T02:06:51;5.30;66.00
80367;DHT22;70058;42.660;23.366;2023-12-29T02:09:17;5.30;65.70
80367;DHT22;70058;42.660;23.366;2023-12-29T02:11:44;5.40;65.40
80367;DHT22;70058;42.660;23.366;2023-12-29T02:14:10;5.30;65.50
80367;DHT22;70058;42.660;23.366;2023-12-29T02:17:04;5.30;66.00
80367;DHT22;70058;42.660;23.366;2023-12-29T02:22:04;5.20;66.00
80367;DHT22;70058;42.660;23.366;2023-12-29T02:24:29;5.20;66.10
80367;DHT22;70058;42.660;23.366;2023-12-29T02:27:12;5.10;66.30
80367;DHT22;70058;42.660;23.366;2023-12-29T02:29:40;5.10;66.90
80367;DHT22;70058;42.660;23.366;2023-12-29T02:32:11;5.10;66.50
80367;DHT22;70058;42.660;23.366;2023-12-29T02:34:40;5.00;66.90
80367;DHT22;70058;42.660;23.366;2023-12-29T02:37:08;5.20;66.60
80367;DHT22;70058;42.660;23.366;2023-12-29T02:39:35;5.30;65.30
80367;DHT22;70058;42.660;23.366;2023-12-29T02:42:00;5.20;64.90
80367;DHT22;70058;42.660;23.366;2023-12-29T02:44:26;5.30;65.10
80367;DHT22;70058;42.660;23.366;2023-12-29T02:46:52;5.10;64.90
80367;DHT22;70058;42.660;23.366;2023-12-29T02:49:17;5.10;64.80
80367;DHT22;70058;42.660;23.366;2023-12-29T02:51:43;5.10;64.70
80367;DHT22;70058;42.660;23.366;2023-12-29T02:54:11;5.00;65.00
80367;DHT22;70058;42.660;23.366;2023-12-29T02:56:37;4.90;65.20
80367;DHT22;70058;42.660;23.366;2023-12-29T02:59:02;4.90;65.60
80367;DHT22;70058;42.660;23.366;2023-12-29T03:01:28;4.90;64.80
80367;DHT22;70058;42.660;23.366;2023-12-29T03:03:54;4.80;65.10
80367;DHT22;70058;42.660;23.366;2023-12-29T03:06:20;4.80;65.10
80367;DHT22;70058;42.660;23.366;2023-12-29T03:08:46;4.60;65.70
80367;DHT22;70058;42.660;23.366;2023-12-29T03:11:11;4.70;65.60
80367;DHT22;70058;42.660;23.366;2023-12-29T03:13:37;4.60;66.00
80367;DHT22;70058;42.660;23.366;2023-12-29T03:16:03;4.50;66.40
80367;DHT22;70058;42.660;23.366;2023-12-29T03:18:28;4.40;66.90
80367;DHT22;70058;42.660;23.366;2023-12-29T03:20:54;4.50;66.40
80367;DHT22;70058;42.660;23.366;2023-12-29T03:23:20;4.50;66.40
80367;DHT22;70058;42.660;23.366;2023-12-29T03:25:45;4.50;66.20
80367;DHT22;70058;42.660;23.366;2023-12-29T03:28:11;4.50;66.50
80367;DHT22;70058;42.660;23.366;2023-12-29T03:30:37;4.50;66.20
80367;DHT22;70058;42.660;23.366;2023-12-29T03:33:03;4.50;65.60
80367;DHT22;70058;42.660;23.366;2023-12-29T03:35:28;4.60;66.00
80367;DHT22;70058;42.660;23.366;2023-12-29T03:37:54;4.50;66.40
80367;DHT22;70058;42.660;23.366;2023-12-29T03:40:20;4.60;66.00
80367;DHT22;70058;42.660;23.366;2023-12-29T03:42:45;4.60;66.00
80367;DHT22;70058;42.660;23.366;2023-12-29T03:45:11;4.60;65.80
80367;DHT22;70058;42.660;23.366;2023-12-29T03:47:37;4.50;66.20
80367;DHT22;70058;42.660;23.366;2023-12-29T03:50:03;4.40;66.00
80367;DHT22;70058;42.660;23.366;2023-12-29T03:52:28;4.40;66.50
80367;DHT22;70058;42.660;23.366;2023-12-29T03:54:54;4.30;66.90
80367;DHT22;70058;42.660;23.366;2023-12-29T03:57:20;4.30;67.20
80367;DHT22;70058;42.660;23.366;2023-12-29T03:59:46;4.20;67.40
80367;DHT22;70058;42.660;23.366;2023-12-29T04:02:11;4.20;67.50
80367;DHT22;70058;42.660;23.366;2023-12-29T04:04:38;4.30;67.00
80367;DHT22;70058;42.660;23.366;2023-12-29T04:07:04;4.40;66.90
80367;DHT22;70058;42.660;23.366;2023-12-29T04:09:30;4.40;66.70
80367;DHT22;70058;42.660;23.366;2023-12-29T04:11:55;4.40;66.80
80367;DHT22;70058;42.660;23.366;2023-12-29T04:14:21;4.40;66.80
80367;DHT22;70058;42.660;23.366;2023-12-29T04:16:47;4.40;67.30
80367;DHT22;70058;42.660;23.366;2023-12-29T04:19:12;4.40;66.80
80367;DHT22;70058;42.660;23.366;2023-12-29T04:21:38;4.30;67.40
80367;DHT22;70058;42.660;23.366;2023-12-29T04:24:04;4.30;67.40
80367;DHT22;70058;42.660;23.366;2023-12-29T04:26:34;4.40;67.00
80367;DHT22;70058;42.660;23.366;2023-12-29T04:29:00;4.40;67.00
80367;DHT22;70058;42.660;23.366;2023-12-29T04:31:26;4.40;67.30
80367;DHT22;70058;42.660;23.366;2023-12-29T04:33:51;4.40;67.30
80367;DHT22;70058;42.660;23.366;2023-12-29T04:36:17;4.50;67.00
80367;DHT22;70058;42.660;23.366;2023-12-29T04:38:42;4.60;66.00
80367;DHT22;70058;42.660;23.366;2023-12-29T04:41:08;4.50;66.00
80367;DHT22;70058;42.660;23.366;2023-12-29T04:43:34;4.40;66.60
80367;DHT22;70058;42.660;23.366;2023-12-29T04:45:59;4.40;66.30
80367;DHT22;70058;42.660;23.366;2023-12-29T04:48:25;4.40;66.50
80367;DHT22;70058;42.660;23.366;2023-12-29T04:50:52;4.40;66.10
80367;DHT22;70058;42.660;23.366;2023-12-29T04:53:17;4.50;65.80
80367;DHT22;70058;42.660;23.366;2023-12-29T04:55:43;4.50;65.50
80367;DHT22;70058;42.660;23.366;2023-12-29T04:58:09;4.40;65.60
80367;DHT22;70058;42.660;23.366;2023-12-29T05:00:34;4.40;65.50
80367;DHT22;70058;42.660;23.366;2023-12-29T05:03:00;4.40;65.30
80367;DHT22;70058;42.660;23.366;2023-12-29T05:05:26;4.30;65.10
80367;DHT22;70058;42.660;23.366;2023-12-29T05:07:51;4.20;65.10
80367;DHT22;70058;42.660;23.366;2023-12-29T05:10:17;4.10;65.60
80367;DHT22;70058;42.660;23.366;2023-12-29T05:12:42;4.10;66.10
80367;DHT22;70058;42.660;23.366;2023-12-29T05:15:08;4.20;66.00
80367;DHT22;70058;42.660;23.366;2023-12-29T05:17:34;4.10;65.50
80367;DHT22;70058;42.660;23.366;2023-12-29T05:19:59;4.10;65.70
80367;DHT22;70058;42.660;23.366;2023-12-29T05:22:25;4.00;66.10
80367;DHT22;70058;42.660;23.366;2023-12-29T05:24:51;4.10;66.20
80367;DHT22;70058;42.660;23.366;2023-12-29T05:27:16;4.20;64.80
80367;DHT22;70058;42.660;23.366;2023-12-29T05:29:42;4.10;64.80
80367;DHT22;70058;42.660;23.366;2023-12-29T05:32:08;4.10;64.30
80367;DHT22;70058;42.660;23.366;2023-12-29T05:34:34;4.10;64.80
80367;DHT22;70058;42.660;23.366;2023-12-29T05:37:00;4.10;64.60
80367;DHT22;70058;42.660;23.366;2023-12-29T05:39:25;4.00;65.30
80367;DHT22;70058;42.660;23.366;2023-12-29T05:41:51;3.90;65.50
80367;DHT22;70058;42.660;23.366;2023-12-29T05:44:17;3.90;65.80
80367;DHT22;70058;42.660;23.366;2023-12-29T05:46:46;3.80;66.10
80367;DHT22;70058;42.660;23.366;2023-12-29T05:49:12;3.90;66.00
80367;DHT22;70058;42.660;23.366;2023-12-29T05:51:38;4.10;65.60
80367;DHT22;70058;42.660;23.366;2023-12-29T05:54:03;4.30;64.50
80367;DHT22;70058;42.660;23.366;2023-12-29T05:56:29;4.30;64.30
80367;DHT22;70058;42.660;23.366;2023-12-29T05:58:55;4.30;64.50
80367;DHT22;70058;42.660;23.366;2023-12-29T06:01:21;4.30;64.50
80367;DHT22;70058;42.660;23.366;2023-12-29T06:03:46;4.20;65.10
80367;DHT22;70058;42.660;23.366;2023-12-29T06:06:12;4.20;65.40
80367;DHT22;70058;42.660;23.366;2023-12-29T06:08:38;4.10;65.30
80367;DHT22;70058;42.660;23.366;2023-12-29T06:11:03;4.20;65.10
80367;DHT22;70058;42.660;23.366;2023-12-29T06:13:29;4.20;64.90
80367;DHT22;70058;42.660;23.366;2023-12-29T06:15:55;4.20;64.70
80367;DHT22;70058;42.660;23.366;2023-12-29T06:18:21;4.30;65.10
80367;DHT22;70058;42.660;23.366;2023-12-29T06:20:47;4.30;64.10
80367;DHT22;70058;42.660;23.366;2023-12-29T06:23:12;4.20;64.30
80367;DHT22;70058;42.660;23.366;2023-12-29T06:25:38;4.10;64.80
80367;DHT22;70058;42.660;23.366;2023-12-29T06:28:07;4.00;65.40
80367;DHT22;70058;42.660;23.366;2023-12-29T06:30:32;4.10;65.40
80367;DHT22;70058;42.660;23.366;2023-12-29T06:32:58;4.10;65.00
80367;DHT22;70058;42.660;23.366;2023-12-29T06:35:24;4.30;64.70
80367;DHT22;70058;42.660;23.366;2023-12-29T06:37:49;4.30;64.10
80367;DHT22;70058;42.660;23.366;2023-12-29T06:40:16;4.30;64.10
80367;DHT22;70058;42.660;23.366;2023-12-29T06:42:42;4.30;63.50
80367;DHT22;70058;42.660;23.366;2023-12-29T06:45:08;4.50;63.30
80367;DHT22;70058;42.660;23.366;2023-12-29T06:47:34;4.50;63.20
80367;DHT22;70058;42.660;23.366;2023-12-29T06:49:59;4.60;62.80
80367;DHT22;70058;42.660;23.366;2023-12-29T06:52:25;4.60;62.80
80367;DHT22;70058;42.660;23.366;2023-12-29T06:54:52;4.70;62.60
80367;DHT22;70058;42.660;23.366;2023-12-29T06:57:17;4.70;62.20
80367;DHT22;70058;42.660;23.366;2023-12-29T06:59:43;4.70;61.90
80367;DHT22;70058;42.660;23.366;2023-12-29T07:02:09;4.70;62.40
80367;DHT22;70058;42.660;23.366;2023-12-29T07:04:34;4.70;62.40
80367;DHT22;70058;42.660;23.366;2023-12-29T07:07:01;4.80;62.20
80367;DHT22;70058;42.660;23.366;2023-12-29T07:09:27;5.00;62.20
80367;DHT22;70058;42.660;23.366;2023-12-29T07:11:53;4.90;62.00
80367;DHT22;70058;42.660;23.366;2023-12-29T07:14:18;5.00;61.70
80367;DHT22;70058;42.660;23.366;2023-12-29T07:16:44;5.10;61.70
80367;DHT22;70058;42.660;23.366;2023-12-29T07:19:10;5.10;61.80
80367;DHT22;70058;42.660;23.366;2023-12-29T07:21:35;5.10;61.90
80367;DHT22;70058;42.660;23.366;2023-12-29T07:24:01;5.20;62.10
80367;DHT22;70058;42.660;23.366;2023-12-29T07:26:27;5.40;61.40
80367;DHT22;70058;42.660;23.366;2023-12-29T07:28:52;5.40;61.20
80367;DHT22;70058;42.660;23.366;2023-12-29T07:31:20;5.60;60.90
80367;DHT22;70058;42.660;23.366;2023-12-29T07:33:46;5.70;60.60
80367;DHT22;70058;42.660;23.366;2023-12-29T07:36:12;5.70;60.10
80367;DHT22;70058;42.660;23.366;2023-12-29T07:38:38;5.80;60.00
80367;DHT22;70058;42.660;23.366;2023-12-29T07:41:03;5.90;59.70
80367;DHT22;70058;42.660;23.366;2023-12-29T07:43:30;5.90;58.90
80367;DHT22;70058;42.660;23.366;2023-12-29T07:45:56;6.10;57.60
80367;DHT22;70058;42.660;23.366;2023-12-29T07:48:21;5.90;57.80
80367;DHT22;70058;42.660;23.366;2023-12-29T07:50:48;5.80;57.70
80367;DHT22;70058;42.660;23.366;2023-12-29T07:53:13;5.80;57.30
80367;DHT22;70058;42.660;23.366;2023-12-29T07:55:39;5.80;57.70
80367;DHT22;70058;42.660;23.366;2023-12-29T07:58:05;5.80;57.70
80367;DHT22;70058;42.660;23.366;2023-12-29T08:00:32;5.80;57.70
80367;DHT22;70058;42.660;23.366;2023-12-29T08:02:58;5.80;57.30
80367;DHT22;70058;42.660;23.366;2023-12-29T08:05:24;5.90;57.60
80367;DHT22;70058;42.660;23.366;2023-12-29T08:07:50;5.80;57.50
80367;DHT22;70058;42.660;23.366;2023-12-29T08:10:16;5.90;57.60
80367;DHT22;70058;42.660;23.366;2023-12-29T08:12:41;5.80;57.70
80367;DHT22;70058;42.660;23.366;2023-12-29T08:15:07;5.70;57.90
80367;DHT22;70058;42.660;23.366;2023-12-29T08:17:33;5.90;57.80
80367;DHT22;70058;42.660;23.366;2023-12-29T08:19:59;5.90;57.50
80367;DHT22;70058;42.660;23.366;2023-12-29T08:22:25;5.90;57.80
80367;DHT22;70058;42.660;23.366;2023-12-29T08:24:50;6.10;57.70
80367;DHT22;70058;42.660;23.366;2023-12-29T08:27:23;6.20;57.50
80367;DHT22;70058;42.660;23.366;2023-12-29T08:29:49;6.30;57.70
80367;DHT22;70058;42.660;23.366;2023-12-29T08:32:15;6.40;57.10
80367;DHT22;70058;42.660;23.366;2023-12-29T08:34:41;6.50;56.90
80367;DHT22;70058;42.660;23.366;2023-12-29T08:37:07;6.50;56.50
80367;DHT22;70058;42.660;23.366;2023-12-29T08:39:33;6.40;57.40
80367;DHT22;70058;42.660;23.366;2023-12-29T08:41:58;6.30;57.80
80367;DHT22;70058;42.660;23.366;2023-12-29T08:44:24;6.30;57.50
80367;DHT22;70058;42.660;23.366;2023-12-29T08:46:50;6.30;58.50
80367;DHT22;70058;42.660;23.366;2023-12-29T08:49:16;6.40;58.50
80367;DHT22;70058;42.660;23.366;2023-12-29T08:51:41;6.60;57.60
80367;DHT22;70058;42.660;23.366;2023-12-29T08:54:07;6.60;57.30
80367;DHT22;70058;42.660;23.366;2023-12-29T08:56:33;6.60;57.10
80367;DHT22;70058;42.660;23.366;2023-12-29T08:58:58;6.50;57.40
80367;DHT22;70058;42.660;23.366;2023-12-29T09:01:24;6.60;58.20
80367;DHT22;70058;42.660;23.366;2023-12-29T09:03:50;6.80;57.70
80367;DHT22;70058;42.660;23.366;2023-12-29T09:06:15;6.90;57.50
80367;DHT22;70058;42.660;23.366;2023-12-29T09:08:41;7.00;57.20
80367;DHT22;70058;42.660;23.366;2023-12-29T09:11:07;6.60;56.80
80367;DHT22;70058;42.660;23.366;2023-12-29T09:13:32;6.70;57.30
80367;DHT22;70058;42.660;23.366;2023-12-29T09:15:59;6.80;57.40
80367;DHT22;70058;42.660;23.366;2023-12-29T09:18:25;6.90;57.40
80367;DHT22;70058;42.660;23.366;2023-12-29T09:20:51;7.00;57.90
80367;DHT22;70058;42.660;23.366;2023-12-29T09:23:17;7.10;57.60
80367;DHT22;70058;42.660;23.366;2023-12-29T09:25:43;7.30;57.20
80367;DHT22;70058;42.660;23.366;2023-12-29T09:28:08;7.50;56.90
80367;DHT22;70058;42.660;23.366;2023-12-29T09:30:34;7.60;56.80
80367;DHT22;70058;42.660;23.366;2023-12-29T09:33:00;7.80;56.30
80367;DHT22;70058;42.660;23.366;2023-12-29T09:35:26;7.80;55.90
80367;DHT22;70058;42.660;23.366;2023-12-29T09:37:51;7.90;56.40
80367;DHT22;70058;42.660;23.366;2023-12-29T09:40:17;8.10;55.60
80367;DHT22;70058;42.660;23.366;2023-12-29T09:42:44;8.30;54.80
80367;DHT22;70058;42.660;23.366;2023-12-29T09:45:13;8.30;54.20
80367;DHT22;70058;42.660;23.366;2023-12-29T09:47:41;8.30;54.40
80367;DHT22;70058;42.660;23.366;2023-12-29T09:50:11;8.20;54.60
80367;DHT22;70058;42.660;23.366;2023-12-29T09:52:40;8.30;54.80
80367;DHT22;70058;42.660;23.366;2023-12-29T09:55:10;8.30;54.90
80367;DHT22;70058;42.660;23.366;2023-12-29T09:57:39;7.90;55.60
80367;DHT22;70058;42.660;23.366;2023-12-29T10:00:07;8.10;56.30
80367;DHT22;70058;42.660;23.366;2023-12-29T10:02:36;7.70;56.80
80367;DHT22;70058;42.660;23.366;2023-12-29T10:05:03;7.90;57.30
80367;DHT22;70058;42.660;23.366;2023-12-29T10:07:32;8.20;57.10
80367;DHT22;70058;42.660;23.366;2023-12-29T10:09:59;8.30;56.70
80367;DHT22;70058;42.660;23.366;2023-12-29T10:12:29;8.40;56.50
80367;DHT22;70058;42.660;23.366;2023-12-29T10:18:18;8.40;56.50
80367;DHT22;70058;42.660;23.366;2023-12-29T10:21:07;8.50;55.60
80367;DHT22;70058;42.660;23.366;2023-12-29T10:23:43;8.50;55.70
80367;DHT22;70058;42.660;23.366;2023-12-29T10:26:13;8.50;55.70
80367;DHT22;70058;42.660;23.366;2023-12-29T10:28:39;8.40;56.00
80367;DHT22;70058;42.660;23.366;2023-12-29T10:31:04;8.50;55.80
80367;DHT22;70058;42.660;23.366;2023-12-29T10:33:30;8.60;55.80
80367;DHT22;70058;42.660;23.366;2023-12-29T10:35:59;8.60;55.30
80367;DHT22;70058;42.660;23.366;2023-12-29T10:38:33;8.70;55.70
80367;DHT22;70058;42.660;23.366;2023-12-29T10:41:17;8.80;55.60
80367;DHT22;70058;42.660;23.366;2023-12-29T10:43:44;8.90;55.10
80367;DHT22;70058;42.660;23.366;2023-12-29T10:46:13;9.00;55.00
80367;DHT22;70058;42.660;23.366;2023-12-29T10:48:39;9.00;54.90
80367;DHT22;70058;42.660;23.366;2023-12-29T10:51:05;8.90;55.10
80367;DHT22;70058;42.660;23.366;2023-12-29T10:53:35;9.00;55.20
80367;DHT22;70058;42.660;23.366;2023-12-29T10:56:01;9.20;55.10
80367;DHT22;70058;42.660;23.366;2023-12-29T10:58:27;9.30;54.90
80367;DHT22;70058;42.660;23.366;2023-12-29T11:00:58;9.50;54.20
80367;DHT22;70058;42.660;23.366;2023-12-29T11:03:24;9.60;53.90
80367;DHT22;70058;42.660;23.366;2023-12-29T11:05:51;9.70;53.70
80367;DHT22;70058;42.660;23.366;2023-12-29T11:08:23;9.60;53.50
80367;DHT22;70058;42.660;23.366;2023-12-29T11:10:50;9.60;53.90
80367;DHT22;70058;42.660;23.366;2023-12-29T11:13:16;9.70;53.40
80367;DHT22;70058;42.660;23.366;2023-12-29T11:15:45;9.60;53.40
80367;DHT22;70058;42.660;23.366;2023-12-29T11:18:16;9.60;54.10
80367;DHT22;70058;42.660;23.366;2023-12-29T11:20:43;9.60;54.20
80367;DHT22;70058;42.660;23.366;2023-12-29T11:23:10;9.70;53.90
80367;DHT22;70058;42.660;23.366;2023-12-29T11:25:39;9.80;53.90
80367;DHT22;70058;42.660;23.366;2023-12-29T11:28:08;9.80;53.50
80367;DHT22;70058;42.660;23.366;2023-12-29T11:30:35;9.50;54.20
80367;DHT22;70058;42.660;23.366;2023-12-29T11:33:23;9.70;54.30
80367;DHT22;70058;42.660;23.366;2023-12-29T11:35:59;9.60;53.70
80367;DHT22;70058;42.660;23.366;2023-12-29T11:41:28;9.40;54.60
80367;DHT22;70058;42.660;23.366;2023-12-29T11:43:59;9.30;55.30
80367;DHT22;70058;42.660;23.366;2023-12-29T11:46:39;9.50;54.80
80367;DHT22;70058;42.660;23.366;2023-12-29T11:49:05;9.60;54.50
80367;DHT22;70058;42.660;23.366;2023-12-29T11:51:46;9.60;54.60
80367;DHT22;70058;42.660;23.366;2023-12-29T11:56:49;9.80;54.60
80367;DHT22;70058;42.660;23.366;2023-12-29T12:01:42;10.00;54.00
80367;DHT22;70058;42.660;23.366;2023-12-29T12:04:33;10.10;53.70
80367;DHT22;70058;42.660;23.366;2023-12-29T12:07:01;10.20;53.40
80367;DHT22;70058;42.660;23.366;2023-12-29T12:09:27;10.20;53.20
80367;DHT22;70058;42.660;23.366;2023-12-29T12:11:53;10.00;53.40
80367;DHT22;70058;42.660;23.366;2023-12-29T12:14:47;10.10;53.90
80367;DHT22;70058;42.660;23.366;2023-12-29T12:17:32;9.90;54.20
80367;DHT22;70058;42.660;23.366;2023-12-29T12:20:08;10.10;54.40
80367;DHT22;70058;42.660;23.366;2023-12-29T12:22:36;10.30;53.80
80367;DHT22;70058;42.660;23.366;2023-12-29T12:25:03;10.40;53.50
80367;DHT22;70058;42.660;23.366;2023-12-29T12:27:30;10.30;53.50
80367;DHT22;70058;42.660;23.366;2023-12-29T12:29:58;10.40;53.50
80367;DHT22;70058;42.660;23.366;2023-12-29T12:32:27;10.50;53.20
80367;DHT22;70058;42.660;23.366;2023-12-29T12:34:53;10.60;53.00
80367;DHT22;70058;42.660;23.366;2023-12-29T12:37:24;10.70;52.90
80367;DHT22;70058;42.660;23.366;2023-12-29T12:39:50;10.80;52.60
80367;DHT22;70058;42.660;23.366;2023-12-29T12:42:17;10.90;52.30
80367;DHT22;70058;42.660;23.366;2023-12-29T12:44:56;10.90;52.10
80367;DHT22;70058;42.660;23.366;2023-12-29T12:47:51;11.00;52.20
80367;DHT22;70058;42.660;23.366;2023-12-29T12:50:18;10.90;52.10
80367;DHT22;70058;42.660;23.366;2023-12-29T12:52:44;11.00;52.00
80367;DHT22;70058;42.660;23.366;2023-12-29T12:55:11;11.00;52.10
80367;DHT22;70058;42.660;23.366;2023-12-29T12:57:37;11.10;52.00
80367;DHT22;70058;42.660;23.366;2023-12-29T13:00:03;11.10;51.90
80367;DHT22;70058;42.660;23.366;2023-12-29T13:02:31;11.10;51.90
80367;DHT22;70058;42.660;23.366;2023-12-29T13:04:58;11.00;52.00
80367;DHT22;70058;42.660;23.366;2023-12-29T13:07:24;11.10;51.80
80367;DHT22;70058;42.660;23.366;2023-12-29T13:09:51;11.20;51.60
80367;DHT22;70058;42.660;23.366;2023-12-29T13:12:18;11.10;51.60
80367;DHT22;70058;42.660;23.366;2023-12-29T13:14:44;11.10;51.90
80367;DHT22;70058;42.660;23.366;2023-12-29T13:17:15;11.20;52.00
80367;DHT22;70058;42.660;23.366;2023-12-29T13:19:42;11.20;51.90
80367;DHT22;70058;42.660;23.366;2023-12-29T13:22:10;11.30;51.70
80367;DHT22;70058;42.660;23.366;2023-12-29T13:24:43;11.30;52.00
80367;DHT22;70058;42.660;23.366;2023-12-29T13:27:08;11.30;51.90
80367;DHT22;70058;42.660;23.366;2023-12-29T13:29:35;11.30;52.10
80367;DHT22;70058;42.660;23.366;2023-12-29T13:32:22;11.30;52.30
80367;DHT22;70058;42.660;23.366;2023-12-29T13:35:06;11.30;52.20
80367;DHT22;70058;42.660;23.366;2023-12-29T13:37:48;11.30;52.30
80367;DHT22;70058;42.660;23.366;2023-12-29T13:40:23;11.30;52.60
80367;DHT22;70058;42.660;23.366;2023-12-29T13:42:54;11.40;52.50
80367;DHT22;70058;42.660;23.366;2023-12-29T13:45:21;11.20;53.10
80367;DHT22;70058;42.660;23.366;2023-12-29T13:47:47;11.20;53.50
80367;DHT22;70058;42.660;23.366;2023-12-29T13:50:12;11.20;53.40
80367;DHT22;70058;42.660;23.366;2023-12-29T13:52:38;11.20;53.20
80367;DHT22;70058;42.660;23.366;2023-12-29T13:55:05;11.30;53.30
80367;DHT22;70058;42.660;23.366;2023-12-29T13:57:32;11.40;53.10
80367;DHT22;70058;42.660;23.366;2023-12-29T14:02:39;11.40;53.20
80367;DHT22;70058;42.660;23.366;2023-12-29T14:05:26;11.30;53.30
80367;DHT22;70058;42.660;23.366;2023-12-29T14:10:31;11.40;53.20
80367;DHT22;70058;42.660;23.366;2023-12-29T14:13:23;11.40;53.00
80367;DHT22;70058;42.660;23.366;2023-12-29T14:15:49;11.50;53.10
80367;DHT22;70058;42.660;23.366;2023-12-29T14:20:52;11.50;53.00
80367;DHT22;70058;42.660;23.366;2023-12-29T14:23:18;11.50;53.20
80367;DHT22;70058;42.660;23.366;2023-12-29T14:25:45;11.60;53.10
80367;DHT22;70058;42.660;23.366;2023-12-29T14:28:20;11.50;52.90
80367;DHT22;70058;42.660;23.366;2023-12-29T14:30:48;11.50;53.00
80367;DHT22;70058;42.660;23.366;2023-12-29T14:33:16;11.50;52.90
80367;DHT22;70058;42.660;23.366;2023-12-29T14:35:41;11.40;53.20
80367;DHT22;70058;42.660;23.366;2023-12-29T14:38:07;11.40;53.20
80367;DHT22;70058;42.660;23.366;2023-12-29T14:40:33;11.40;53.20
80367;DHT22;70058;42.660;23.366;2023-12-29T14:43:01;11.40;53.30
80367;DHT22;70058;42.660;23.366;2023-12-29T14:45:27;11.30;53.80
80367;DHT22;70058;42.660;23.366;2023-12-29T14:47:58;11.20;54.20
80367;DHT22;70058;42.660;23.366;2023-12-29T14:50:25;11.10;54.60
80367;DHT22;70058;42.660;23.366;2023-12-29T14:52:51;11.00;54.50
80367;DHT22;70058;42.660;23.366;2023-12-29T14:55:17;11.00;54.80
80367;DHT22;70058;42.660;23.366;2023-12-29T14:57:42;10.90;55.00
80367;DHT22;70058;42.660;23.366;2023-12-29T15:00:10;10.90;55.00
80367;DHT22;70058;42.660;23.366;2023-12-29T15:02:36;10.80;55.10
80367;DHT22;70058;42.660;23.366;2023-12-29T15:05:02;10.80;56.30
80367;DHT22;70058;42.660;23.366;2023-12-29T15:07:28;10.80;55.70
80367;DHT22;70058;42.660;23.366;2023-12-29T15:09:56;10.60;56.20
80367;DHT22;70058;42.660;23.366;2023-12-29T15:12:22;10.60;56.10
80367;DHT22;70058;42.660;23.366;2023-12-29T15:14:48;10.60;56.30
80367;DHT22;70058;42.660;23.366;2023-12-29T15:17:13;10.50;56.60
80367;DHT22;70058;42.660;23.366;2023-12-29T15:19:39;10.50;56.90
80367;DHT22;70058;42.660;23.366;2023-12-29T15:22:05;10.40;56.70
80367;DHT22;70058;42.660;23.366;2023-12-29T15:24:30;10.40;56.70
80367;DHT22;70058;42.660;23.366;2023-12-29T15:26:56;10.30;56.90
80367;DHT22;70058;42.660;23.366;2023-12-29T15:29:22;10.30;56.60
80367;DHT22;70058;42.660;23.366;2023-12-29T15:31:49;10.20;56.60
80367;DHT22;70058;42.660;23.366;2023-12-29T15:34:14;10.20;57.10
80367;DHT22;70058;42.660;23.366;2023-12-29T15:36:40;10.20;56.80
80367;DHT22;70058;42.660;23.366;2023-12-29T15:39:06;10.20;56.90
80367;DHT22;70058;42.660;23.366;2023-12-29T15:41:32;10.20;57.10
80367;DHT22;70058;42.660;23.366;2023-12-29T15:43:58;10.10;57.00
80367;DHT22;70058;42.660;23.366;2023-12-29T15:46:24;10.10;57.30
80367;DHT22;70058;42.660;23.366;2023-12-29T15:48:50;10.10;57.20
80367;DHT22;70058;42.660;23.366;2023-12-29T15:51:15;10.10;57.10